sensor_id;sensor_type;location;lat;lon;timestamp;pressure;altitude;pressure_sealevel;temperature;humidity
75497;BME280;64074;47.540;19.072;2023-07-16T00:01:10;100400.88;;;25.13;61.99
75497;BME280;64074;47.540;19.072;2023-07-16T00:04:13;100385.00;;;25.03;62.14
75497;BME280;64074;47.540;19.072;2023-07-16T00:07:16;100404.06;;;25.11;62.06
75497;BME280;64074;47.540;19.072;2023-07-16T00:10:19;100409.63;;;25.11;62.50
75497;BME280;64074;47.540;19.072;2023-07-16T00:13:22;100414.25;;;24.82;63.42
75497;BME280;64074;47.540;19.072;2023-07-16T00:16:26;100407.84;;;24.71;63.71
75497;BME280;64074;47.540;19.072;2023-07-16T00:19:29;100411.06;;;24.80;63.30
75497;BME280;64074;47.540;19.072;2023-07-16T00:22:32;100412.06;;;24.44;63.81
75497;BME280;64074;47.540;19.072;2023-07-16T00:25:35;100408.06;;;24.38;64.19
75497;BME280;64074;47.540;19.072;2023-07-16T00:28:38;100408.44;;;24.33;64.32
75497;BME280;64074;47.540;19.072;2023-07-16T00:31:41;100404.09;;;24.32;64.36
75497;BME280;64074;47.540;19.072;2023-07-16T00:34:44;100415.56;;;24.30;64.74
75497;BME280;64074;47.540;19.072;2023-07-16T00:37:48;100406.88;;;24.39;64.64
75497;BME280;64074;47.540;19.072;2023-07-16T00:40:53;100406.59;;;24.54;64.13
75497;BME280;64074;47.540;19.072;2023-07-16T00:43:56;100405.41;;;24.59;63.89
75497;BME280;64074;47.540;19.072;2023-07-16T00:47:00;100400.66;;;24.60;63.51
75497;BME280;64074;47.540;19.072;2023-07-16T00:50:08;100405.41;;;24.59;63.76
75497;BME280;64074;47.540;19.072;2023-07-16T00:53:12;100397.84;;;24.52;64.36
75497;BME280;64074;47.540;19.072;2023-07-16T00:56:16;100402.09;;;24.32;65.37
75497;BME280;64074;47.540;19.072;2023-07-16T00:59:25;100400.19;;;24.47;64.30
75497;BME280;64074;47.540;19.072;2023-07-16T01:02:28;100386.72;;;24.45;64.34
75497;BME280;64074;47.540;19.072;2023-07-16T01:05:39;100392.66;;;24.44;64.01
75497;BME280;64074;47.540;19.072;2023-07-16T01:08:58;100399.75;;;24.38;64.59
75497;BME280;64074;47.540;19.072;2023-07-16T01:12:03;100392.22;;;24.35;63.90
75497;BME280;64074;47.540;19.072;2023-07-16T01:15:07;100390.91;;;24.21;64.55
75497;BME280;64074;47.540;19.072;2023-07-16T01:18:11;100387.41;;;24.28;64.64
75497;BME280;64074;47.540;19.072;2023-07-16T01:21:17;100372.31;;;24.25;64.64
75497;BME280;64074;47.540;19.072;2023-07-16T01:31:10;100391.88;;;24.50;64.06
75497;BME280;64074;47.540;19.072;2023-07-16T01:34:14;100393.81;;;24.36;64.29
75497;BME280;64074;47.540;19.072;2023-07-16T01:37:18;100381.53;;;24.33;64.23
75497;BME280;64074;47.540;19.072;2023-07-16T01:40:21;100380.63;;;24.25;64.67
75497;BME280;64074;47.540;19.072;2023-07-16T01:43:25;100383.88;;;24.31;65.11
75497;BME280;64074;47.540;19.072;2023-07-16T01:46:28;100367.50;;;24.08;64.93
75497;BME280;64074;47.540;19.072;2023-07-16T01:49:33;100374.28;;;24.21;64.69
75497;BME280;64074;47.540;19.072;2023-07-16T01:52:36;100387.31;;;24.14;65.62
75497;BME280;64074;47.540;19.072;2023-07-16T01:55:39;100382.97;;;24.16;65.33
75497;BME280;64074;47.540;19.072;2023-07-16T01:58:42;100379.41;;;24.19;65.63
75497;BME280;64074;47.540;19.072;2023-07-16T02:01:45;100379.00;;;24.17;65.39
75497;BME280;64074;47.540;19.072;2023-07-16T02:04:48;100387.31;;;24.17;65.24
75497;BME280;64074;47.540;19.072;2023-07-16T02:07:51;100386.41;;;24.03;65.92
75497;BME280;64074;47.540;19.072;2023-07-16T02:10:54;100379.38;;;24.12;65.68
75497;BME280;64074;47.540;19.072;2023-07-16T02:14:00;100384.13;;;24.12;65.60
75497;BME280;64074;47.540;19.072;2023-07-16T02:17:03;100378.06;;;23.96;66.22
75497;BME280;64074;47.540;19.072;2023-07-16T02:20:06;100380.53;;;24.04;66.29
75497;BME280;64074;47.540;19.072;2023-07-16T02:23:10;100388.50;;;24.13;66.28
75497;BME280;64074;47.540;19.072;2023-07-16T02:26:13;100379.69;;;24.04;66.16
75497;BME280;64074;47.540;19.072;2023-07-16T02:29:17;100372.47;;;23.85;67.09
75497;BME280;64074;47.540;19.072;2023-07-16T02:32:20;100362.44;;;23.70;67.14
75497;BME280;64074;47.540;19.072;2023-07-16T02:35:23;100374.28;;;23.67;67.38
75497;BME280;64074;47.540;19.072;2023-07-16T02:38:27;100371.09;;;23.61;67.65
75497;BME280;64074;47.540;19.072;2023-07-16T02:41:30;100376.75;;;23.79;67.13
75497;BME280;64074;47.540;19.072;2023-07-16T02:44:34;100376.63;;;23.61;67.50
75497;BME280;64074;47.540;19.072;2023-07-16T02:47:41;100375.47;;;23.66;66.82
75497;BME280;64074;47.540;19.072;2023-07-16T02:50:44;100381.81;;;23.70;67.18
75497;BME280;64074;47.540;19.072;2023-07-16T02:53:46;100382.22;;;23.72;66.73
75497;BME280;64074;47.540;19.072;2023-07-16T02:56:49;100380.31;;;23.79;66.08
75497;BME280;64074;47.540;19.072;2023-07-16T02:59:53;100371.91;;;23.65;66.69
75497;BME280;64074;47.540;19.072;2023-07-16T03:02:57;100386.63;;;23.76;66.48
75497;BME280;64074;47.540;19.072;2023-07-16T03:06:03;100385.03;;;23.75;66.25
75497;BME280;64074;47.540;19.072;2023-07-16T03:09:09;100385.44;;;23.77;66.36
75497;BME280;64074;47.540;19.072;2023-07-16T03:12:12;100381.38;;;23.60;66.36
75497;BME280;64074;47.540;19.072;2023-07-16T03:15:15;100387.47;;;23.40;67.48
75497;BME280;64074;47.540;19.072;2023-07-16T03:18:19;100398.22;;;23.48;67.46
75497;BME280;64074;47.540;19.072;2023-07-16T03:21:22;100399.53;;;23.58;67.13
75497;BME280;64074;47.540;19.072;2023-07-16T03:24:25;100398.75;;;23.57;67.27
75497;BME280;64074;47.540;19.072;2023-07-16T03:27:29;100393.06;;;23.47;67.53
75497;BME280;64074;47.540;19.072;2023-07-16T03:30:35;100403.16;;;23.66;66.64
75497;BME280;64074;47.540;19.072;2023-07-16T03:33:40;100416.97;;;23.62;66.52
75497;BME280;64074;47.540;19.072;2023-07-16T03:36:43;100411.84;;;23.64;65.50
75497;BME280;64074;47.540;19.072;2023-07-16T03:39:47;100404.72;;;23.63;65.21
75497;BME280;64074;47.540;19.072;2023-07-16T03:42:51;100418.59;;;23.70;65.20
75497;BME280;64074;47.540;19.072;2023-07-16T03:45:54;100415.44;;;23.68;64.56
75497;BME280;64074;47.540;19.072;2023-07-16T03:49:01;100411.84;;;23.64;65.14
75497;BME280;64074;47.540;19.072;2023-07-16T03:52:04;100423.72;;;23.65;65.28
75497;BME280;64074;47.540;19.072;2023-07-16T03:55:08;100428.28;;;23.50;65.35
75497;BME280;64074;47.540;19.072;2023-07-16T03:58:11;100421.59;;;23.54;64.61
75497;BME280;64074;47.540;19.072;2023-07-16T04:01:14;100431.50;;;23.55;63.95
75497;BME280;64074;47.540;19.072;2023-07-16T04:04:18;100431.31;;;23.75;62.66
75497;BME280;64074;47.540;19.072;2023-07-16T04:07:21;100443.66;;;23.81;61.95
75497;BME280;64074;47.540;19.072;2023-07-16T04:10:24;100432.22;;;23.86;62.14
75497;BME280;64074;47.540;19.072;2023-07-16T04:13:27;100435.03;;;23.93;61.92
75497;BME280;64074;47.540;19.072;2023-07-16T04:16:30;100437.78;;;23.89;61.72
75497;BME280;64074;47.540;19.072;2023-07-16T04:19:33;100437.34;;;23.84;61.91
75497;BME280;64074;47.540;19.072;2023-07-16T04:22:36;100439.94;;;23.66;62.59
75497;BME280;64074;47.540;19.072;2023-07-16T04:25:39;100439.72;;;23.85;62.57
75497;BME280;64074;47.540;19.072;2023-07-16T04:28:42;100442.50;;;23.89;62.43
75497;BME280;64074;47.540;19.072;2023-07-16T04:31:45;100446.97;;;23.56;63.44
75497;BME280;64074;47.540;19.072;2023-07-16T04:34:48;100438.53;;;23.86;62.62
75497;BME280;64074;47.540;19.072;2023-07-16T04:37:52;100442.50;;;23.89;62.04
75497;BME280;64074;47.540;19.072;2023-07-16T04:40:55;100451.16;;;23.43;63.52
75497;BME280;64074;47.540;19.072;2023-07-16T04:43:57;100448.72;;;23.38;63.92
75497;BME280;64074;47.540;19.072;2023-07-16T04:47:00;100445.44;;;23.62;62.89
75497;BME280;64074;47.540;19.072;2023-07-16T04:50:04;100449.91;;;23.78;62.50
75497;BME280;64074;47.540;19.072;2023-07-16T04:53:07;100448.13;;;23.55;63.20
75497;BME280;64074;47.540;19.072;2023-07-16T04:56:14;100456.00;;;23.94;62.61
75497;BME280;64074;47.540;19.072;2023-07-16T04:59:19;100457.75;;;23.69;62.50
75497;BME280;64074;47.540;19.072;2023-07-16T05:02:21;100467.53;;;24.03;62.05
75497;BME280;64074;47.540;19.072;2023-07-16T05:05:24;100472.72;;;24.05;62.23
75497;BME280;64074;47.540;19.072;2023-07-16T05:08:27;100467.22;;;24.08;61.59
75497;BME280;64074;47.540;19.072;2023-07-16T05:11:30;100478.72;;;24.14;61.88
75497;BME280;64074;47.540;19.072;2023-07-16T05:14:43;100481.22;;;23.82;62.59
75497;BME280;64074;47.540;19.072;2023-07-16T05:17:49;100476.88;;;23.81;62.89
75497;BME280;64074;47.540;19.072;2023-07-16T05:20:52;100475.84;;;24.00;62.30
75497;BME280;64074;47.540;19.072;2023-07-16T05:23:55;100470.00;;;24.12;61.90
75497;BME280;64074;47.540;19.072;2023-07-16T05:26:59;100469.72;;;24.28;60.81
75497;BME280;64074;47.540;19.072;2023-07-16T05:30:02;100463.72;;;24.18;60.23
75497;BME280;64074;47.540;19.072;2023-07-16T05:33:06;100455.38;;;24.11;60.70
75497;BME280;64074;47.540;19.072;2023-07-16T05:36:09;100464.66;;;24.33;60.46
75497;BME280;64074;47.540;19.072;2023-07-16T05:39:12;100465.16;;;24.49;60.02
75497;BME280;64074;47.540;19.072;2023-07-16T05:42:16;100467.44;;;24.37;60.33
75497;BME280;64074;47.540;19.072;2023-07-16T05:45:19;100464.84;;;24.10;60.69
75497;BME280;64074;47.540;19.072;2023-07-16T05:48:21;100470.25;;;24.44;60.18
75497;BME280;64074;47.540;19.072;2023-07-16T05:51:24;100472.75;;;24.63;58.92
75497;BME280;64074;47.540;19.072;2023-07-16T05:54:27;100461.31;;;24.68;59.33
75497;BME280;64074;47.540;19.072;2023-07-16T05:57:30;100458.94;;;24.74;59.52
75497;BME280;64074;47.540;19.072;2023-07-16T06:00:34;100455.06;;;24.85;59.33
75497;BME280;64074;47.540;19.072;2023-07-16T06:03:37;100474.63;;;25.18;58.11
75497;BME280;64074;47.540;19.072;2023-07-16T06:06:40;100482.03;;;24.96;58.99
75497;BME280;64074;47.540;19.072;2023-07-16T06:09:43;100479.00;;;25.19;58.81
75497;BME280;64074;47.540;19.072;2023-07-16T06:12:46;100480.81;;;24.86;59.86
75497;BME280;64074;47.540;19.072;2023-07-16T06:15:49;100473.41;;;25.04;59.36
75497;BME280;64074;47.540;19.072;2023-07-16T06:18:51;100482.16;;;25.17;59.11
75497;BME280;64074;47.540;19.072;2023-07-16T06:21:54;100475.88;;;25.34;58.51
75497;BME280;64074;47.540;19.072;2023-07-16T06:24:58;100478.59;;;25.17;58.69
75497;BME280;64074;47.540;19.072;2023-07-16T06:28:04;100484.22;;;25.41;57.55
75497;BME280;64074;47.540;19.072;2023-07-16T06:31:07;100494.19;;;25.57;57.10
75497;BME280;64074;47.540;19.072;2023-07-16T06:34:10;100490.22;;;25.58;57.59
75497;BME280;64074;47.540;19.072;2023-07-16T06:37:12;100481.91;;;25.58;56.56
75497;BME280;64074;47.540;19.072;2023-07-16T06:40:18;100483.03;;;25.39;57.50
75497;BME280;64074;47.540;19.072;2023-07-16T06:43:21;100476.34;;;25.54;57.03
75497;BME280;64074;47.540;19.072;2023-07-16T06:46:24;100481.56;;;25.84;56.27
75497;BME280;64074;47.540;19.072;2023-07-16T06:49:27;100476.03;;;25.81;56.31
75497;BME280;64074;47.540;19.072;2023-07-16T06:52:30;100486.72;;;25.96;56.40
75497;BME280;64074;47.540;19.072;2023-07-16T06:55:33;100464.09;;;26.23;55.37
75497;BME280;64074;47.540;19.072;2023-07-16T06:58:36;100474.81;;;26.21;55.60
75497;BME280;64074;47.540;19.072;2023-07-16T07:01:39;100477.22;;;26.08;55.64
75497;BME280;64074;47.540;19.072;2023-07-16T07:04:43;100473.25;;;26.05;55.76
75497;BME280;64074;47.540;19.072;2023-07-16T07:07:46;100471.63;;;26.58;54.48
75497;BME280;64074;47.540;19.072;2023-07-16T07:10:49;100462.03;;;26.80;53.39
75497;BME280;64074;47.540;19.072;2023-07-16T07:13:52;100457.19;;;27.06;53.62
75497;BME280;64074;47.540;19.072;2023-07-16T07:16:56;100464.34;;;27.00;53.33
75497;BME280;64074;47.540;19.072;2023-07-16T07:20:01;100460.00;;;27.02;52.97
75497;BME280;64074;47.540;19.072;2023-07-16T07:23:05;100467.50;;;27.12;53.10
75497;BME280;64074;47.540;19.072;2023-07-16T07:26:08;100460.38;;;27.04;52.68
75497;BME280;64074;47.540;19.072;2023-07-16T07:29:11;100454.84;;;26.90;52.85
75497;BME280;64074;47.540;19.072;2023-07-16T07:32:14;100455.91;;;27.21;52.46
75497;BME280;64074;47.540;19.072;2023-07-16T07:35:17;100464.22;;;27.32;52.11
75497;BME280;64074;47.540;19.072;2023-07-16T07:38:20;100470.81;;;27.63;51.47
75497;BME280;64074;47.540;19.072;2023-07-16T07:41:23;100459.88;;;27.89;51.62
75497;BME280;64074;47.540;19.072;2023-07-16T07:44:26;100452.63;;;27.99;51.14
75497;BME280;64074;47.540;19.072;2023-07-16T07:47:29;100458.25;;;27.92;50.78
75497;BME280;64074;47.540;19.072;2023-07-16T07:50:33;100451.69;;;28.16;51.09
75497;BME280;64074;47.540;19.072;2023-07-16T07:53:36;100456.19;;;28.03;50.70
75497;BME280;64074;47.540;19.072;2023-07-16T07:56:44;100452.41;;;28.24;50.07
75497;BME280;64074;47.540;19.072;2023-07-16T07:59:47;100442.78;;;28.36;49.93
75497;BME280;64074;47.540;19.072;2023-07-16T08:02:50;100437.22;;;28.32;49.57
75497;BME280;64074;47.540;19.072;2023-07-16T08:05:54;100447.38;;;28.49;49.02
75497;BME280;64074;47.540;19.072;2023-07-16T08:08:57;100442.81;;;28.66;48.60
75497;BME280;64074;47.540;19.072;2023-07-16T08:12:02;100443.84;;;28.83;48.31
75497;BME280;64074;47.540;19.072;2023-07-16T08:15:06;100449.59;;;29.03;48.37
75497;BME280;64074;47.540;19.072;2023-07-16T08:18:10;100438.72;;;29.12;47.31
75497;BME280;64074;47.540;19.072;2023-07-16T08:21:14;100438.84;;;29.32;46.57
75497;BME280;64074;47.540;19.072;2023-07-16T08:24:24;100436.50;;;29.57;46.45
75497;BME280;64074;47.540;19.072;2023-07-16T08:27:27;100430.28;;;29.42;46.79
75497;BME280;64074;47.540;19.072;2023-07-16T08:30:32;100421.31;;;29.58;46.67
75497;BME280;64074;47.540;19.072;2023-07-16T08:33:35;100428.16;;;29.81;45.99
75497;BME280;64074;47.540;19.072;2023-07-16T08:36:38;100428.69;;;29.95;44.38
75497;BME280;64074;47.540;19.072;2023-07-16T08:39:41;100422.56;;;30.27;41.96
75497;BME280;64074;47.540;19.072;2023-07-16T08:42:45;100430.38;;;30.36;42.21
75497;BME280;64074;47.540;19.072;2023-07-16T08:45:51;100419.03;;;30.67;40.83
75497;BME280;64074;47.540;19.072;2023-07-16T08:48:56;100419.94;;;31.00;39.42
75497;BME280;64074;47.540;19.072;2023-07-16T08:52:00;100407.84;;;31.22;40.56
75497;BME280;64074;47.540;19.072;2023-07-16T08:55:04;100408.34;;;30.81;41.53
75497;BME280;64074;47.540;19.072;2023-07-16T08:58:08;100407.38;;;31.08;41.01
75497;BME280;64074;47.540;19.072;2023-07-16T09:01:12;100419.09;;;31.39;40.79
75497;BME280;64074;47.540;19.072;2023-07-16T09:04:16;100421.63;;;31.33;40.21
75497;BME280;64074;47.540;19.072;2023-07-16T09:07:19;100413.75;;;31.28;40.12
75497;BME280;64074;47.540;19.072;2023-07-16T09:10:25;100411.59;;;31.52;39.63
75497;BME280;64074;47.540;19.072;2023-07-16T09:13:29;100421.75;;;31.62;39.60
75497;BME280;64074;47.540;19.072;2023-07-16T09:16:33;100422.97;;;31.94;39.08
75497;BME280;64074;47.540;19.072;2023-07-16T09:19:37;100421.16;;;32.03;38.85
75497;BME280;64074;47.540;19.072;2023-07-16T09:22:39;100424.25;;;31.76;39.58
75497;BME280;64074;47.540;19.072;2023-07-16T09:25:43;100420.63;;;31.92;39.75
75497;BME280;64074;47.540;19.072;2023-07-16T09:28:48;100414.00;;;32.15;39.74
75497;BME280;64074;47.540;19.072;2023-07-16T09:32:01;100411.69;;;32.42;39.24
75497;BME280;64074;47.540;19.072;2023-07-16T09:35:13;100407.63;;;32.31;39.57
75497;BME280;64074;47.540;19.072;2023-07-16T09:38:17;100416.63;;;32.38;38.96
75497;BME280;64074;47.540;19.072;2023-07-16T09:41:21;100400.66;;;32.35;38.65
75497;BME280;64074;47.540;19.072;2023-07-16T09:44:24;100411.97;;;32.90;38.84
75497;BME280;64074;47.540;19.072;2023-07-16T09:47:28;100410.28;;;32.80;38.38
75497;BME280;64074;47.540;19.072;2023-07-16T09:50:33;100417.72;;;32.99;37.84
75497;BME280;64074;47.540;19.072;2023-07-16T09:53:37;100401.75;;;33.21;37.93
75497;BME280;64074;47.540;19.072;2023-07-16T09:56:44;100426.09;;;33.41;36.98
75497;BME280;64074;47.540;19.072;2023-07-16T09:59:48;100414.97;;;33.37;37.46
75497;BME280;64074;47.540;19.072;2023-07-16T10:02:54;100407.66;;;33.40;37.05
75497;BME280;64074;47.540;19.072;2023-07-16T10:06:07;100409.69;;;33.39;36.89
75497;BME280;64074;47.540;19.072;2023-07-16T10:09:11;100417.63;;;33.02;37.25
75497;BME280;64074;47.540;19.072;2023-07-16T10:12:17;100407.66;;;33.40;36.65
75497;BME280;64074;47.540;19.072;2023-07-16T10:15:26;100401.34;;;33.61;35.99
75497;BME280;64074;47.540;19.072;2023-07-16T10:18:30;100391.19;;;33.89;36.25
75497;BME280;64074;47.540;19.072;2023-07-16T10:21:37;100402.94;;;33.37;36.45
75497;BME280;64074;47.540;19.072;2023-07-16T10:24:43;100402.00;;;33.78;36.55
75497;BME280;64074;47.540;19.072;2023-07-16T10:27:48;100399.41;;;33.83;36.35
75497;BME280;64074;47.540;19.072;2023-07-16T10:30:52;100392.91;;;34.21;35.56
75497;BME280;64074;47.540;19.072;2023-07-16T10:34:04;100388.81;;;33.87;36.51
75497;BME280;64074;47.540;19.072;2023-07-16T10:37:08;100392.06;;;33.99;35.81
75497;BME280;64074;47.540;19.072;2023-07-16T10:40:12;100386.06;;;34.09;36.00
75497;BME280;64074;47.540;19.072;2023-07-16T10:43:16;100384.88;;;33.98;35.56
75497;BME280;64074;47.540;19.072;2023-07-16T10:46:20;100384.06;;;34.32;34.44
75497;BME280;64074;47.540;19.072;2023-07-16T10:49:27;100378.50;;;34.41;34.11
75497;BME280;64074;47.540;19.072;2023-07-16T10:52:31;100381.19;;;34.66;34.47
75497;BME280;64074;47.540;19.072;2023-07-16T10:55:34;100377.72;;;34.40;34.93
75497;BME280;64074;47.540;19.072;2023-07-16T10:58:42;100378.91;;;34.52;34.29
75497;BME280;64074;47.540;19.072;2023-07-16T11:01:45;100378.97;;;34.39;34.11
75497;BME280;64074;47.540;19.072;2023-07-16T11:04:49;100372.59;;;34.70;33.72
75497;BME280;64074;47.540;19.072;2023-07-16T11:07:52;100368.56;;;34.71;32.88
75497;BME280;64074;47.540;19.072;2023-07-16T11:10:57;100369.34;;;34.71;33.39
75497;BME280;64074;47.540;19.072;2023-07-16T11:14:05;100356.47;;;35.23;32.46
75497;BME280;64074;47.540;19.072;2023-07-16T11:17:09;100367.78;;;36.09;32.16
75497;BME280;64074;47.540;19.072;2023-07-16T11:20:13;100367.63;;;36.13;31.92
75497;BME280;64074;47.540;19.072;2023-07-16T11:23:17;100363.41;;;36.08;31.03
75497;BME280;64074;47.540;19.072;2023-07-16T11:26:20;100366.03;;;35.84;31.02
75497;BME280;64074;47.540;19.072;2023-07-16T11:29:24;100368.66;;;35.60;31.13
75497;BME280;64074;47.540;19.072;2023-07-16T11:35:40;100369.50;;;36.06;30.60
75497;BME280;64074;47.540;19.072;2023-07-16T11:38:43;100353.22;;;36.01;29.91
75497;BME280;64074;47.540;19.072;2023-07-16T11:41:56;100359.41;;;35.20;31.00
75497;BME280;64074;47.540;19.072;2023-07-16T11:45:14;100365.19;;;35.56;30.30
75497;BME280;64074;47.540;19.072;2023-07-16T11:48:17;100360.25;;;36.06;29.82
75497;BME280;64074;47.540;19.072;2023-07-16T11:51:20;100353.97;;;35.93;30.93
75497;BME280;64074;47.540;19.072;2023-07-16T11:54:23;100351.44;;;36.59;29.35
75497;BME280;64074;47.540;19.072;2023-07-16T11:57:26;100355.06;;;37.11;28.52
75497;BME280;64074;47.540;19.072;2023-07-16T12:00:29;100356.69;;;37.36;27.92
75497;BME280;64074;47.540;19.072;2023-07-16T12:03:32;100358.28;;;37.61;27.61
75497;BME280;64074;47.540;19.072;2023-07-16T12:06:35;100351.47;;;37.43;28.00
75497;BME280;64074;47.540;19.072;2023-07-16T12:09:38;100352.13;;;36.45;29.32
75497;BME280;64074;47.540;19.072;2023-07-16T12:12:41;100351.16;;;35.84;30.49
75497;BME280;64074;47.540;19.072;2023-07-16T12:15:44;100353.06;;;37.02;28.45
75497;BME280;64074;47.540;19.072;2023-07-16T12:18:48;100352.69;;;37.99;27.26
75497;BME280;64074;47.540;19.072;2023-07-16T12:21:52;100339.94;;;39.22;25.66
75497;BME280;64074;47.540;19.072;2023-07-16T12:24:56;100350.63;;;38.83;26.35
75497;BME280;64074;47.540;19.072;2023-07-16T12:28:01;100343.25;;;39.41;25.39
75497;BME280;64074;47.540;19.072;2023-07-16T12:31:05;100346.00;;;38.41;26.42
75497;BME280;64074;47.540;19.072;2023-07-16T12:34:08;100338.44;;;39.26;26.13
75497;BME280;64074;47.540;19.072;2023-07-16T12:37:11;100342.44;;;37.30;27.81
75497;BME280;64074;47.540;19.072;2023-07-16T12:40:15;100336.16;;;37.17;28.25
75497;BME280;64074;47.540;19.072;2023-07-16T12:43:20;100336.88;;;39.25;25.88
75497;BME280;64074;47.540;19.072;2023-07-16T12:46:23;100342.03;;;40.49;24.61
75497;BME280;64074;47.540;19.072;2023-07-16T12:49:26;100345.06;;;40.19;24.25
75497;BME280;64074;47.540;19.072;2023-07-16T12:52:29;100339.47;;;39.84;24.51
75497;BME280;64074;47.540;19.072;2023-07-16T12:55:32;100343.28;;;40.42;23.46
75497;BME280;64074;47.540;19.072;2023-07-16T12:58:36;100340.56;;;41.22;23.46
75497;BME280;64074;47.540;19.072;2023-07-16T13:01:39;100347.69;;;42.03;21.80
75497;BME280;64074;47.540;19.072;2023-07-16T13:04:42;100340.31;;;39.50;25.06
75497;BME280;64074;47.540;19.072;2023-07-16T13:07:45;100344.53;;;39.04;25.29
75497;BME280;64074;47.540;19.072;2023-07-16T13:10:48;100350.59;;;39.47;25.02
75497;BME280;64074;47.540;19.072;2023-07-16T13:13:52;100339.09;;;40.95;23.07
75497;BME280;64074;47.540;19.072;2023-07-16T13:16:55;100340.84;;;41.67;22.92
75497;BME280;64074;47.540;19.072;2023-07-16T13:19:58;100348.53;;;42.26;22.10
75497;BME280;64074;47.540;19.072;2023-07-16T13:23:04;100352.47;;;42.45;21.84
75497;BME280;64074;47.540;19.072;2023-07-16T13:26:16;100339.25;;;42.59;21.75
75497;BME280;64074;47.540;19.072;2023-07-16T13:29:19;100340.59;;;43.83;20.99
75497;BME280;64074;47.540;19.072;2023-07-16T13:32:27;100336.56;;;43.50;21.66
75497;BME280;64074;47.540;19.072;2023-07-16T13:35:32;100342.09;;;42.42;22.13
75497;BME280;64074;47.540;19.072;2023-07-16T13:38:38;100344.56;;;41.90;22.82
75497;BME280;64074;47.540;19.072;2023-07-16T13:41:43;100342.13;;;38.53;26.45
75497;BME280;64074;47.540;19.072;2023-07-16T13:44:48;100345.06;;;38.44;27.08
75497;BME280;64074;47.540;19.072;2023-07-16T13:47:50;100335.66;;;38.38;26.99
75497;BME280;64074;47.540;19.072;2023-07-16T13:50:55;100326.34;;;39.11;25.60
75497;BME280;64074;47.540;19.072;2023-07-16T13:54:02;100330.31;;;38.01;27.75
75497;BME280;64074;47.540;19.072;2023-07-16T13:57:08;100323.72;;;39.43;26.45
75497;BME280;64074;47.540;19.072;2023-07-16T14:00:15;100323.13;;;38.89;27.08
75497;BME280;64074;47.540;19.072;2023-07-16T14:03:23;100323.84;;;39.33;26.40
75497;BME280;64074;47.540;19.072;2023-07-16T14:06:26;100328.63;;;40.29;25.22
75497;BME280;64074;47.540;19.072;2023-07-16T14:09:29;100319.44;;;41.94;23.20
75497;BME280;64074;47.540;19.072;2023-07-16T14:12:33;100313.25;;;41.41;23.67
75497;BME280;64074;47.540;19.072;2023-07-16T14:15:37;100314.78;;;42.02;22.23
75497;BME280;64074;47.540;19.072;2023-07-16T14:18:40;100320.81;;;42.37;22.29
75497;BME280;64074;47.540;19.072;2023-07-16T14:21:43;100314.63;;;40.46;24.78
75497;BME280;64074;47.540;19.072;2023-07-16T14:24:46;100315.34;;;38.54;27.46
75497;BME280;64074;47.540;19.072;2023-07-16T14:27:53;100312.59;;;37.77;28.74
75497;BME280;64074;47.540;19.072;2023-07-16T14:30:56;100323.47;;;37.12;29.56
75497;BME280;64074;47.540;19.072;2023-07-16T14:34:00;100310.00;;;39.06;27.18
75497;BME280;64074;47.540;19.072;2023-07-16T14:37:03;100306.88;;;40.46;24.67
75497;BME280;64074;47.540;19.072;2023-07-16T14:40:08;100296.97;;;40.99;24.15
75497;BME280;64074;47.540;19.072;2023-07-16T14:43:12;100304.06;;;41.21;23.94
75497;BME280;64074;47.540;19.072;2023-07-16T14:46:15;100297.97;;;39.11;26.52
75497;BME280;64074;47.540;19.072;2023-07-16T14:49:20;100310.41;;;38.10;27.79
75497;BME280;64074;47.540;19.072;2023-07-16T14:52:23;100291.28;;;38.94;28.13
75497;BME280;64074;47.540;19.072;2023-07-16T14:55:26;100298.03;;;37.45;31.52
75497;BME280;64074;47.540;19.072;2023-07-16T14:58:32;100293.13;;;37.70;29.49
75497;BME280;64074;47.540;19.072;2023-07-16T15:01:36;100285.91;;;38.07;29.21
75497;BME280;64074;47.540;19.072;2023-07-16T15:04:39;100279.22;;;38.20;29.01
75497;BME280;64074;47.540;19.072;2023-07-16T15:07:42;100283.09;;;38.66;28.42
75497;BME280;64074;47.540;19.072;2023-07-16T15:10:45;100291.97;;;38.59;28.30
75497;BME280;64074;47.540;19.072;2023-07-16T15:13:48;100287.25;;;38.12;28.89
75497;BME280;64074;47.540;19.072;2023-07-16T15:16:51;100282.63;;;37.13;30.13
75497;BME280;64074;47.540;19.072;2023-07-16T15:19:56;100278.81;;;36.50;31.19
75497;BME280;64074;47.540;19.072;2023-07-16T15:23:01;100285.84;;;36.55;31.03
75497;BME280;64074;47.540;19.072;2023-07-16T15:26:05;100272.81;;;37.00;30.28
75497;BME280;64074;47.540;19.072;2023-07-16T15:29:12;100282.16;;;37.15;30.61
75497;BME280;64074;47.540;19.072;2023-07-16T15:32:15;100303.72;;;37.36;30.19
75497;BME280;64074;47.540;19.072;2023-07-16T15:35:18;100289.34;;;37.16;30.17
75497;BME280;64074;47.540;19.072;2023-07-16T15:38:22;100291.84;;;37.23;30.21
75497;BME280;64074;47.540;19.072;2023-07-16T15:41:25;100287.50;;;36.80;30.82
75497;BME280;64074;47.540;19.072;2023-07-16T15:44:30;100290.84;;;36.69;30.76
75497;BME280;64074;47.540;19.072;2023-07-16T15:47:34;100278.50;;;36.39;31.46
75497;BME280;64074;47.540;19.072;2023-07-16T15:50:38;100284.81;;;36.25;31.74
75497;BME280;64074;47.540;19.072;2023-07-16T15:53:42;100281.59;;;36.59;31.33
75497;BME280;64074;47.540;19.072;2023-07-16T15:56:45;100289.50;;;36.88;31.18
75497;BME280;64074;47.540;19.072;2023-07-16T15:59:49;100277.25;;;36.40;31.63